Time;durP1;ratioP1;P1;durP2;ratioP2;P2;SDS_P1;SDS_P2;PMS_P1;PMS_P2;Temp;Humidity;BMP_temperature;BMP_pressure;BME280_temperature;BME280_humidity;BME280_pressure;Samples;Min_cycle;Max_cycle;Signal;HPM_P1;HPM_P2
2021/09/12 00:01:49;;;;;;;7.65;5.43;;;23.30;72.60;;;;;;5167176;28;20495;-70
2021/09/12 00:04:23;;;;;;;8.50;5.85;;;23.20;72.50;;;;;;5172957;28;20052;-71
2021/09/12 00:06:55;;;;;;;6.28;5.30;;;23.20;72.50;;;;;;5139932;28;20409;-71
2021/09/12 00:09:28;;;;;;;6.47;5.47;;;23.20;72.50;;;;;;5173333;28;20057;-71
2021/09/12 00:12:01;;;;;;;7.00;5.78;;;23.20;72.40;;;;;;5172112;28;20053;-71
2021/09/12 00:14:35;;;;;;;7.25;4.72;;;23.20;72.50;;;;;;5175374;28;20069;-70
2021/09/12 00:17:07;;;;;;;5.85;4.95;;;23.20;72.40;;;;;;5173449;28;20495;-70
2021/09/12 00:19:40;;;;;;;7.03;5.22;;;23.20;72.50;;;;;;5157699;28;20065;-70
2021/09/12 00:22:12;;;;;;;7.60;5.40;;;23.20;72.40;;;;;;5175345;28;20034;-71
2021/09/12 00:24:44;;;;;;;5.95;5.10;;;23.20;72.30;;;;;;5171418;28;20050;-71
2021/09/12 00:27:17;;;;;;;9.02;5.07;;;23.20;72.30;;;;;;5174143;28;20046;-70
2021/09/12 00:29:49;;;;;;;5.72;4.78;;;23.20;72.20;;;;;;5170146;28;20054;-70
2021/09/12 00:32:22;;;;;;;8.18;5.20;;;23.20;72.20;;;;;;5173725;28;20050;-71
2021/09/12 00:34:55;;;;;;;7.38;4.60;;;23.20;72.00;;;;;;5170118;28;20045;-70
2021/09/12 00:37:27;;;;;;;8.40;4.72;;;23.10;72.00;;;;;;5172828;28;20415;-70
2021/09/12 00:40:00;;;;;;;9.15;4.50;;;23.10;71.90;;;;;;5170706;28;20050;-70
2021/09/12 00:42:32;;;;;;;7.68;4.85;;;23.20;72.00;;;;;;5170155;28;20050;-70
2021/09/12 00:45:05;;;;;;;5.90;4.47;;;23.10;72.00;;;;;;5154468;28;20050;-71
2021/09/12 00:47:38;;;;;;;7.80;4.77;;;23.10;72.00;;;;;;5172219;28;20058;-71
2021/09/12 00:50:11;;;;;;;9.27;5.60;;;23.10;71.90;;;;;;5157150;28;20690;-71
2021/09/12 00:52:45;;;;;;;7.78;5.10;;;23.10;71.90;;;;;;5174744;28;20412;-71
2021/09/12 00:55:19;;;;;;;6.15;4.40;;;23.10;71.90;;;;;;5166536;28;20054;-72
2021/09/12 00:57:53;;;;;;;7.07;4.63;;;23.10;71.80;;;;;;5170055;28;20056;-71
2021/09/12 01:00:26;;;;;;;8.45;4.53;;;23.10;71.80;;;;;;5170334;28;20057;-71
2021/09/12 01:03:13;;;;;;;6.45;4.68;;;23.10;71.80;;;;;;5176978;28;20611;-70
2021/09/12 01:05:46;;;;;;;4.72;4.22;;;23.10;71.80;;;;;;5160031;28;20049;-71
2021/09/12 01:08:19;;;;;;;6.90;5.03;;;23.10;71.70;;;;;;5175707;28;20053;-71
2021/09/12 01:10:53;;;;;;;5.72;4.70;;;23.10;71.80;;;;;;5185016;28;20056;-71
2021/09/12 01:13:25;;;;;;;8.40;4.38;;;23.10;71.80;;;;;;5184224;28;20049;-71
2021/09/12 01:15:57;;;;;;;5.05;4.30;;;23.10;71.70;;;;;;5178582;28;20736;-71
2021/09/12 01:18:30;;;;;;;8.85;4.13;;;23.10;71.70;;;;;;5161959;28;20061;-72
2021/09/12 01:21:02;;;;;;;9.15;4.32;;;23.10;71.60;;;;;;5178464;28;20057;-71
2021/09/12 01:23:35;;;;;;;6.78;4.47;;;23.00;71.60;;;;;;5182426;28;20054;-70
2021/09/12 01:26:08;;;;;;;4.75;3.80;;;23.10;71.60;;;;;;5173871;28;20484;-70
2021/09/12 01:28:42;;;;;;;4.95;3.90;;;23.00;71.50;;;;;;5175275;28;20061;-72
2021/09/12 01:31:22;;;;;;;5.20;4.15;;;23.10;71.60;;;;;;5170180;28;20050;-71
2021/09/12 01:34:00;;;;;;;4.57;3.97;;;23.00;71.30;;;;;;5187229;28;20377;-71
2021/09/12 01:36:33;;;;;;;6.57;3.88;;;23.10;71.50;;;;;;5152549;28;20038;-72
2021/09/12 01:39:05;;;;;;;5.80;4.57;;;23.00;71.40;;;;;;5175220;28;20042;-71
2021/09/12 01:41:37;;;;;;;6.10;3.90;;;23.00;71.40;;;;;;5169387;28;20061;-72
2021/09/12 01:44:11;;;;;;;4.20;3.72;;;23.00;71.40;;;;;;5185493;28;20045;-72
2021/09/12 01:46:46;;;;;;;5.57;4.35;;;23.00;71.40;;;;;;5180492;28;20299;-72
2021/09/12 01:49:21;;;;;;;4.75;4.13;;;23.00;71.40;;;;;;5187903;28;20045;-72
2021/09/12 01:51:54;;;;;;;5.15;3.92;;;23.00;71.40;;;;;;5175902;28;20042;-71
2021/09/12 01:54:26;;;;;;;5.53;3.87;;;23.00;71.30;;;;;;5195512;28;20045;-71
2021/09/12 01:56:58;;;;;;;5.25;3.58;;;23.00;71.30;;;;;;5187547;28;20120;-70
2021/09/12 01:59:31;;;;;;;6.88;3.72;;;23.00;71.20;;;;;;5183308;28;20043;-71
2021/09/12 02:02:03;;;;;;;4.90;3.80;;;23.00;71.20;;;;;;5174508;28;20042;-71
2021/09/12 02:04:36;;;;;;;5.97;4.67;;;23.00;71.10;;;;;;5167346;28;20057;-71
2021/09/12 02:07:08;;;;;;;5.93;4.10;;;23.00;71.10;;;;;;5161433;28;20516;-71
2021/09/12 02:09:41;;;;;;;4.72;3.67;;;23.00;71.00;;;;;;5182253;28;20484;-71
2021/09/12 02:12:13;;;;;;;4.18;3.75;;;23.00;71.00;;;;;;5179144;28;20403;-69
2021/09/12 02:14:45;;;;;;;7.07;3.75;;;23.00;71.00;;;;;;5185087;28;20048;-70
2021/09/12 02:17:18;;;;;;;3.92;3.53;;;23.00;70.90;;;;;;5172290;28;20419;-71
2021/09/12 02:19:50;;;;;;;6.70;3.90;;;23.00;71.00;;;;;;5171117;28;20479;-71
2021/09/12 02:22:23;;;;;;;3.83;3.45;;;22.90;70.80;;;;;;5179460;28;20046;-71
2021/09/12 02:24:55;;;;;;;6.20;4.10;;;22.90;70.80;;;;;;5177960;28;20065;-71
2021/09/12 02:27:28;;;;;;;5.22;3.75;;;22.90;70.80;;;;;;5182215;28;20081;-71
2021/09/12 02:30:01;;;;;;;5.00;3.65;;;22.90;70.70;;;;;;5176383;28;20054;-71
2021/09/12 02:32:33;;;;;;;5.32;3.92;;;22.90;70.70;;;;;;5169710;28;20492;-71
2021/09/12 02:35:06;;;;;;;5.13;3.70;;;22.90;70.50;;;;;;5182316;28;20298;-71
2021/09/12 02:37:39;;;;;;;4.85;3.65;;;22.90;70.50;;;;;;5173668;28;20042;-71
2021/09/12 02:40:12;;;;;;;3.90;3.50;;;22.90;70.50;;;;;;5180954;28;20046;-71
2021/09/12 02:42:45;;;;;;;4.53;3.80;;;23.00;70.50;;;;;;5179850;28;20042;-69
2021/09/12 02:45:17;;;;;;;6.35;3.42;;;22.90;70.40;;;;;;5179790;28;20046;-71
2021/09/12 02:47:49;;;;;;;4.30;3.60;;;23.00;70.50;;;;;;5180204;28;20066;-71
2021/09/12 02:50:22;;;;;;;7.80;3.50;;;22.90;70.40;;;;;;5183309;28;20057;-71
2021/09/12 02:52:54;;;;;;;4.50;3.60;;;22.90;70.40;;;;;;5177277;28;20046;-71
2021/09/12 02:55:27;;;;;;;7.97;3.67;;;22.90;70.20;;;;;;5175356;28;20050;-70
2021/09/12 02:57:59;;;;;;;5.72;3.17;;;22.90;70.30;;;;;;5177783;28;20050;-71
2021/09/12 03:00:31;;;;;;;5.85;3.40;;;22.90;70.20;;;;;;5177579;28;20049;-70
2021/09/12 03:03:04;;;;;;;4.43;3.55;;;22.90;70.20;;;;;;5179710;28;20053;-70
2021/09/12 03:05:36;;;;;;;3.83;2.93;;;22.90;70.10;;;;;;5185800;28;20046;-71
2021/09/12 03:08:09;;;;;;;4.25;3.33;;;22.90;70.10;;;;;;5184922;28;20053;-71
2021/09/12 03:10:41;;;;;;;5.47;3.58;;;22.90;70.00;;;;;;5183465;28;20053;-70
2021/09/12 03:13:14;;;;;;;3.38;3.08;;;22.90;70.00;;;;;;5184530;28;20042;-71
2021/09/12 03:15:46;;;;;;;3.77;3.37;;;22.90;69.90;;;;;;5173686;28;20051;-71
2021/09/12 03:18:19;;;;;;;7.23;3.07;;;22.90;69.90;;;;;;5177401;28;20038;-70
2021/09/12 03:20:51;;;;;;;8.40;4.00;;;22.90;69.70;;;;;;5173666;28;20076;-70
2021/09/12 03:23:24;;;;;;;6.30;3.15;;;22.90;69.70;;;;;;5179853;28;20042;-69
2021/09/12 03:25:56;;;;;;;4.35;3.75;;;22.90;69.80;;;;;;5168143;28;20046;-71
2021/09/12 03:28:28;;;;;;;9.95;3.60;;;22.90;69.70;;;;;;5172928;28;20054;-70
2021/09/12 03:31:01;;;;;;;3.97;2.97;;;22.90;69.70;;;;;;5156050;28;20526;-71
2021/09/12 03:33:34;;;;;;;6.57;3.25;;;22.90;69.60;;;;;;5181868;28;20050;-71
2021/09/12 03:36:06;;;;;;;6.18;3.38;;;22.90;69.50;;;;;;5178470;28;20046;-69
2021/09/12 03:38:39;;;;;;;6.13;3.47;;;22.80;69.40;;;;;;5183994;28;20396;-71
2021/09/12 03:41:11;;;;;;;4.20;3.38;;;22.80;69.40;;;;;;5185310;28;20050;-71
2021/09/12 03:43:43;;;;;;;6.35;3.20;;;22.90;69.50;;;;;;5166334;28;20054;-71
2021/09/12 03:46:16;;;;;;;5.47;3.15;;;22.80;69.30;;;;;;5184546;28;20053;-71
2021/09/12 03:48:48;;;;;;;4.15;3.33;;;22.80;69.30;;;;;;5175804;28;20049;-70
2021/09/12 03:51:20;;;;;;;4.32;3.25;;;22.80;69.40;;;;;;5183292;28;20049;-71
2021/09/12 03:53:53;;;;;;;3.40;3.05;;;22.80;69.30;;;;;;5183463;28;20057;-70
2021/09/12 03:56:25;;;;;;;4.22;3.22;;;22.80;69.30;;;;;;5176989;28;20050;-71
2021/09/12 03:58:58;;;;;;;4.15;3.30;;;22.80;69.30;;;;;;5180480;28;20041;-71
2021/09/12 04:01:30;;;;;;;4.15;3.25;;;22.80;69.30;;;;;;5179780;28;20407;-71
2021/09/12 04:04:03;;;;;;;3.78;3.00;;;22.80;69.20;;;;;;5171685;28;20048;-71
2021/09/12 04:06:35;;;;;;;5.10;3.50;;;22.80;69.30;;;;;;5177360;28;20204;-70
2021/09/12 04:09:08;;;;;;;3.78;3.13;;;22.80;69.10;;;;;;5184686;28;20518;-71
2021/09/12 04:11:40;;;;;;;5.35;3.38;;;22.80;69.30;;;;;;5179530;28;20511;-71
2021/09/12 04:14:12;;;;;;;8.05;3.25;;;22.80;69.20;;;;;;5183350;28;20042;-71
2021/09/12 04:16:45;;;;;;;3.47;3.17;;;22.80;69.10;;;;;;5181787;28;20042;-70
2021/09/12 04:19:17;;;;;;;4.13;3.03;;;22.80;69.10;;;;;;5152992;28;20046;-70
2021/09/12 04:21:50;;;;;;;4.03;3.50;;;22.80;69.70;;;;;;5177733;28;20081;-70
2021/09/12 04:24:24;;;;;;;4.57;3.60;;;22.80;69.00;;;;;;5171479;28;20424;-71
2021/09/12 04:26:56;;;;;;;3.90;3.25;;;22.80;69.00;;;;;;5173174;28;20054;-70
2021/09/12 04:29:28;;;;;;;5.05;3.22;;;22.70;68.90;;;;;;5172826;28;20046;-71
2021/09/12 04:32:01;;;;;;;4.70;3.15;;;22.80;68.90;;;;;;5188198;28;20407;-71
2021/09/12 04:34:35;;;;;;;4.63;3.38;;;22.70;68.90;;;;;;5183874;28;20050;-70
2021/09/12 04:37:07;;;;;;;5.70;3.13;;;22.80;68.80;;;;;;5172963;28;20042;-71
2021/09/12 04:39:40;;;;;;;3.33;3.03;;;22.80;68.70;;;;;;5150972;28;20061;-71
2021/09/12 04:42:12;;;;;;;4.95;3.22;;;22.70;68.70;;;;;;5149803;28;20050;-71
2021/09/12 04:44:44;;;;;;;4.07;3.42;;;22.70;68.90;;;;;;5170757;28;20636;-71
2021/09/12 04:47:17;;;;;;;5.32;3.30;;;22.70;68.80;;;;;;5184045;28;20041;-70
2021/09/12 04:49:49;;;;;;;5.38;3.25;;;22.70;68.70;;;;;;5182792;28;20049;-70
2021/09/12 04:52:22;;;;;;;4.60;3.25;;;22.70;68.70;;;;;;5187066;28;20079;-71
2021/09/12 04:54:54;;;;;;;6.28;3.42;;;22.70;68.70;;;;;;5176516;28;20034;-71
2021/09/12 04:57:26;;;;;;;4.05;3.45;;;22.70;68.70;;;;;;5189569;28;20057;-71
2021/09/12 04:59:59;;;;;;;3.70;3.22;;;22.70;68.60;;;;;;5164873;28;20045;-71
2021/09/12 05:02:31;;;;;;;7.07;3.33;;;22.70;68.70;;;;;;5177948;28;20045;-71
2021/09/12 05:05:04;;;;;;;4.18;3.78;;;22.70;68.70;;;;;;5181792;28;20042;-71
2021/09/12 05:07:37;;;;;;;4.53;3.35;;;22.70;68.70;;;;;;5176816;28;20046;-71
2021/09/12 05:10:09;;;;;;;6.32;3.40;;;22.70;68.80;;;;;;5170024;28;20049;-70
2021/09/12 05:12:42;;;;;;;6.50;3.37;;;22.70;68.70;;;;;;5175065;28;20404;-70
2021/09/12 05:15:14;;;;;;;4.35;3.47;;;22.70;68.70;;;;;;5185173;28;20276;-70
2021/09/12 05:17:47;;;;;;;6.38;3.30;;;22.70;68.70;;;;;;5172139;28;20403;-70
2021/09/12 05:20:19;;;;;;;3.67;2.80;;;22.70;68.70;;;;;;5177645;28;20057;-71
2021/09/12 05:22:52;;;;;;;4.25;3.60;;;22.70;68.70;;;;;;5189449;28;20058;-71
2021/09/12 05:25:24;;;;;;;4.53;3.47;;;22.70;68.70;;;;;;5184199;28;20049;-69
2021/09/12 05:27:57;;;;;;;4.47;3.72;;;22.70;68.70;;;;;;5181556;28;20046;-70
2021/09/12 05:30:29;;;;;;;3.90;3.30;;;22.70;68.70;;;;;;5177643;28;20042;-70
2021/09/12 05:33:02;;;;;;;3.88;3.38;;;22.70;68.70;;;;;;5180421;28;20403;-71
2021/09/12 05:35:34;;;;;;;4.75;3.65;;;22.60;68.70;;;;;;5178398;28;20046;-70
2021/09/12 05:38:07;;;;;;;4.83;3.60;;;22.70;68.80;;;;;;5180164;28;20483;-70
2021/09/12 05:40:39;;;;;;;4.38;3.53;;;22.60;68.80;;;;;;5177718;28;20577;-71
2021/09/12 05:43:12;;;;;;;5.13;3.05;;;22.60;68.70;;;;;;5181511;28;20513;-71
2021/09/12 05:45:44;;;;;;;4.15;3.38;;;22.60;68.70;;;;;;5180756;28;20107;-71
2021/09/12 05:48:17;;;;;;;3.83;3.40;;;22.60;68.80;;;;;;5182531;28;20076;-70
2021/09/12 05:50:49;;;;;;;4.13;3.72;;;22.70;68.90;;;;;;5172109;28;20510;-71
2021/09/12 05:53:24;;;;;;;7.25;3.42;;;22.70;69.00;;;;;;5176588;28;20105;-70
2021/09/12 05:55:58;;;;;;;10.73;3.70;;;22.70;69.00;;;;;;5186742;28;20042;-71
2021/09/12 05:58:30;;;;;;;3.70;3.08;;;22.70;69.00;;;;;;5177841;28;20507;-71
2021/09/12 06:01:03;;;;;;;6.47;3.50;;;22.60;69.10;;;;;;5180869;28;20061;-71
2021/09/12 06:03:36;;;;;;;3.10;2.80;;;22.60;69.10;;;;;;5157346;28;20663;-70
2021/09/12 06:06:09;;;;;;;4.10;3.30;;;22.70;69.20;;;;;;5176528;28;20054;-70
2021/09/12 06:08:41;;;;;;;6.38;3.42;;;22.60;69.50;;;;;;5177199;28;20053;-71
2021/09/12 06:11:14;;;;;;;3.95;3.08;;;22.60;69.70;;;;;;5176564;28;20056;-71
2021/09/12 06:13:46;;;;;;;4.25;3.25;;;22.60;70.00;;;;;;5156265;28;20046;-70
2021/09/12 06:16:18;;;;;;;3.63;3.00;;;22.60;70.10;;;;;;5170782;28;20127;-70
2021/09/12 06:18:51;;;;;;;8.15;3.05;;;22.70;70.30;;;;;;5168388;28;20038;-70
2021/09/12 06:21:23;;;;;;;4.30;3.10;;;22.70;70.50;;;;;;5172724;28;20530;-70
2021/09/12 06:23:55;;;;;;;4.95;3.55;;;22.70;70.40;;;;;;5165716;28;20090;-70
2021/09/12 06:26:28;;;;;;;3.72;3.08;;;22.70;70.60;;;;;;5174890;28;20087;-70
2021/09/12 06:29:01;;;;;;;3.97;3.15;;;22.70;70.60;;;;;;5173866;28;20057;-70
2021/09/12 06:31:33;;;;;;;4.97;3.05;;;22.70;70.60;;;;;;5172891;28;20056;-70
2021/09/12 06:34:05;;;;;;;2.97;2.67;;;22.70;70.70;;;;;;5175126;28;20381;-70
2021/09/12 06:36:38;;;;;;;3.40;3.10;;;22.70;70.70;;;;;;5173658;28;20042;-70
2021/09/12 06:39:10;;;;;;;3.42;2.90;;;22.70;70.80;;;;;;5172613;28;20046;-70
2021/09/12 06:41:43;;;;;;;4.57;3.28;;;22.70;71.50;;;;;;5170944;28;20381;-69
2021/09/12 06:44:15;;;;;;;3.88;3.10;;;22.70;70.90;;;;;;5172910;28;20050;-70
2021/09/12 06:46:48;;;;;;;4.03;3.53;;;22.70;70.90;;;;;;5174063;28;20912;-70
2021/09/12 06:49:20;;;;;;;3.70;2.60;;;22.70;71.00;;;;;;5170663;28;20065;-70
2021/09/12 06:51:52;;;;;;;3.50;2.83;;;22.70;71.00;;;;;;5174533;28;20515;-70
2021/09/12 06:54:25;;;;;;;3.45;3.10;;;22.70;71.10;;;;;;5173927;28;20524;-70
2021/09/12 06:56:57;;;;;;;3.58;3.22;;;22.70;71.10;;;;;;5153519;28;20054;-70
2021/09/12 06:59:29;;;;;;;3.38;3.03;;;22.70;71.20;;;;;;5171089;28;20050;-70
2021/09/12 07:02:02;;;;;;;5.50;3.05;;;22.70;71.30;;;;;;5173174;28;20053;-69
2021/09/12 07:04:37;;;;;;;6.10;3.15;;;22.70;71.30;;;;;;5157682;28;20050;-70
2021/09/12 07:07:09;;;;;;;3.85;2.78;;;22.70;71.40;;;;;;5154665;28;20050;-70
2021/09/12 07:09:42;;;;;;;3.60;3.00;;;22.70;71.40;;;;;;5162919;28;20061;-70
2021/09/12 07:12:14;;;;;;;6.20;3.35;;;22.70;71.50;;;;;;5161113;28;20420;-70
2021/09/12 07:14:52;;;;;;;6.15;2.85;;;22.70;71.50;;;;;;5157112;28;20061;-70
2021/09/12 07:17:24;;;;;;;4.13;2.88;;;22.70;71.60;;;;;;5159263;28;20046;-71
2021/09/12 07:19:57;;;;;;;7.82;3.00;;;22.70;71.60;;;;;;5159022;28;20038;-69
2021/09/12 07:22:29;;;;;;;6.20;2.90;;;22.70;71.60;;;;;;5160252;28;20053;-69
2021/09/12 07:25:02;;;;;;;5.68;3.03;;;22.70;71.70;;;;;;5183727;28;20418;-70
2021/09/12 07:27:35;;;;;;;10.00;2.75;;;22.70;72.00;;;;;;5183936;28;20053;-70
2021/09/12 07:30:15;;;;;;;3.60;2.90;;;22.70;71.80;;;;;;5181451;28;20049;-70
2021/09/12 07:32:48;;;;;;;4.32;2.97;;;22.70;71.80;;;;;;5192431;28;20506;-71
2021/09/12 07:35:21;;;;;;;8.85;2.92;;;22.70;72.00;;;;;;5186175;28;20050;-71
2021/09/12 07:37:53;;;;;;;5.78;2.97;;;22.80;72.10;;;;;;5182452;28;20077;-70
2021/09/12 07:40:25;;;;;;;7.68;3.30;;;22.80;72.00;;;;;;5164630;28;20054;-69
2021/09/12 07:42:58;;;;;;;3.20;2.58;;;22.80;72.10;;;;;;5179303;28;20118;-71
2021/09/12 07:45:31;;;;;;;7.15;2.75;;;22.80;72.10;;;;;;5164956;28;20065;-71
2021/09/12 07:48:03;;;;;;;4.45;3.00;;;22.80;72.20;;;;;;5172347;28;20050;-71
2021/09/12 07:50:36;;;;;;;5.10;3.30;;;22.80;72.30;;;;;;5162386;28;20558;-69
2021/09/12 07:53:08;;;;;;;4.80;3.22;;;22.80;72.30;;;;;;5177264;28;20372;-70
2021/09/12 07:55:41;;;;;;;7.82;3.45;;;22.80;72.30;;;;;;5178051;28;20072;-70
2021/09/12 07:58:14;;;;;;;12.57;3.40;;;22.80;72.40;;;;;;5166869;28;20038;-71
2021/09/12 08:00:46;;;;;;;5.90;2.97;;;22.80;72.40;;;;;;5184026;28;20057;-69
2021/09/12 08:03:24;;;;;;;13.80;3.22;;;22.80;72.40;;;;;;5198946;28;20146;-70
2021/09/12 08:05:56;;;;;;;7.25;3.28;;;22.90;72.50;;;;;;5204395;28;20064;-70
2021/09/12 08:08:29;;;;;;;7.85;3.08;;;22.90;72.60;;;;;;5188345;28;20053;-72
2021/09/12 08:11:01;;;;;;;9.77;3.20;;;22.90;72.70;;;;;;5183173;28;20050;-68
2021/09/12 08:13:33;;;;;;;9.07;3.35;;;22.90;72.70;;;;;;5185804;28;20054;-70
2021/09/12 08:16:07;;;;;;;9.30;2.88;;;22.90;72.70;;;;;;5163398;28;20665;-70
2021/09/12 08:18:40;;;;;;;10.68;3.30;;;22.90;72.70;;;;;;5184347;28;20056;-70
2021/09/12 08:21:12;;;;;;;7.13;3.40;;;22.90;72.70;;;;;;5198153;28;20403;-70
2021/09/12 08:23:45;;;;;;;9.98;3.55;;;22.90;72.70;;;;;;5181598;28;20050;-69
2021/09/12 08:26:17;;;;;;;8.23;3.03;;;22.90;72.80;;;;;;5184613;28;20065;-70
2021/09/12 08:28:49;;;;;;;6.55;2.95;;;22.90;72.80;;;;;;5150101;28;20058;-69
2021/09/12 08:31:22;;;;;;;9.02;3.40;;;22.90;72.80;;;;;;5183448;28;20065;-70
2021/09/12 08:33:55;;;;;;;7.32;3.40;;;22.90;72.70;;;;;;5166972;28;20042;-70
2021/09/12 08:36:27;;;;;;;7.63;3.30;;;22.90;72.70;;;;;;5166185;28;20061;-70
2021/09/12 08:38:59;;;;;;;7.47;3.10;;;22.90;72.70;;;;;;5184557;28;20048;-69
2021/09/12 08:41:32;;;;;;;5.53;3.05;;;22.90;72.70;;;;;;5193416;28;20483;-70
2021/09/12 08:44:06;;;;;;;6.82;3.95;;;23.00;72.70;;;;;;5184134;28;20060;-71
2021/09/12 08:46:39;;;;;;;10.43;3.40;;;22.90;72.70;;;;;;5183932;28;20054;-70
2021/09/12 08:49:12;;;;;;;8.45;3.08;;;23.00;72.80;;;;;;5169581;28;20496;-70
2021/09/12 08:51:45;;;;;;;6.97;2.90;;;23.00;73.40;;;;;;5177548;28;20073;-71
2021/09/12 08:54:17;;;;;;;7.18;3.05;;;22.90;72.70;;;;;;5183781;28;20053;-72
2021/09/12 08:56:49;;;;;;;5.35;2.90;;;23.00;72.70;;;;;;5190654;28;20054;-72
2021/09/12 08:59:26;;;;;;;9.77;3.58;;;23.00;72.70;;;;;;5181586;28;20396;-72
2021/09/12 09:02:01;;;;;;;9.93;3.35;;;23.00;72.60;;;;;;5179036;28;20051;-72
2021/09/12 09:04:35;;;;;;;6.28;3.05;;;23.00;72.60;;;;;;5180144;28;20047;-72
2021/09/12 09:07:10;;;;;;;5.90;3.17;;;23.00;72.50;;;;;;5182500;28;20057;-72
2021/09/12 09:09:42;;;;;;;5.43;2.75;;;23.00;72.60;;;;;;5173749;28;20072;-71
2021/09/12 09:12:26;;;;;;;4.05;2.88;;;23.00;72.60;;;;;;5181827;28;20045;-70
2021/09/12 09:15:00;;;;;;;5.22;3.47;;;23.00;72.50;;;;;;5184978;28;20053;-71
2021/09/12 09:17:37;;;;;;;6.63;3.40;;;23.00;72.70;;;;;;5174128;28;20400;-73
2021/09/12 09:20:18;;;;;;;6.90;3.90;;;23.00;72.50;;;;;;5181471;28;20506;-72
2021/09/12 09:22:52;;;;;;;6.30;3.22;;;23.00;72.60;;;;;;5161942;28;20050;-72
2021/09/12 09:25:29;;;;;;;7.88;3.75;;;23.00;72.70;;;;;;5177057;28;20053;-71
2021/09/12 09:28:04;;;;;;;8.07;3.75;;;23.00;72.70;;;;;;5159042;28;20680;-71
2021/09/12 09:30:51;;;;;;;6.32;3.83;;;23.00;72.90;;;;;;5158875;28;20057;-71
2021/09/12 09:33:29;;;;;;;4.97;3.88;;;23.00;73.00;;;;;;5183012;28;20046;-71
2021/09/12 09:36:07;;;;;;;5.53;4.07;;;23.00;73.10;;;;;;5183591;28;20053;-70
2021/09/12 09:38:40;;;;;;;5.40;3.58;;;23.00;73.10;;;;;;5163540;28;20046;-70
2021/09/12 09:41:18;;;;;;;5.18;3.90;;;23.00;73.20;;;;;;5183557;28;20045;-72
2021/09/12 09:43:53;;;;;;;6.28;4.03;;;23.00;73.40;;;;;;5185435;28;20561;-72
2021/09/12 09:46:36;;;;;;;7.55;3.97;;;23.00;73.40;;;;;;5187055;28;20057;-74
2021/09/12 09:49:20;;;;;;;6.87;3.83;;;23.00;73.30;;;;;;5185378;28;20057;-72
2021/09/12 09:52:00;;;;;;;5.75;3.63;;;23.00;73.40;;;;;;5156302;28;20496;-72
2021/09/12 09:54:34;;;;;;;9.13;4.00;;;23.00;73.30;;;;;;5166350;28;20389;-72
2021/09/12 09:57:08;;;;;;;7.53;4.28;;;23.00;73.30;;;;;;5168328;28;20041;-70
2021/09/12 09:59:40;;;;;;;8.48;4.05;;;23.10;73.40;;;;;;5186277;28;20060;-73
2021/09/12 10:02:15;;;;;;;8.88;4.35;;;23.10;73.60;;;;;;5205580;28;20045;-72
2021/09/12 10:04:49;;;;;;;13.20;4.43;;;23.10;73.60;;;;;;5183872;28;20042;-72
2021/09/12 10:07:22;;;;;;;9.32;3.85;;;23.10;73.50;;;;;;5186160;28;20046;-72
2021/09/12 10:09:55;;;;;;;13.98;4.60;;;23.10;73.50;;;;;;5181830;28;20053;-70
2021/09/12 10:12:28;;;;;;;13.33;4.50;;;23.10;73.50;;;;;;5147433;28;20042;-71
2021/09/12 10:15:11;;;;;;;8.00;4.43;;;23.10;73.30;;;;;;5180057;28;20305;-72
2021/09/12 10:17:45;;;;;;;12.95;4.90;;;23.10;73.30;;;;;;5147701;28;20050;-71
2021/09/12 10:20:28;;;;;;;6.70;4.15;;;23.10;73.40;;;;;;5181025;28;20048;-73
2021/09/12 10:23:02;;;;;;;;;;;23.20;73.40;;;;;;5184769;28;20030;-73
2021/09/12 10:25:55;;;;;;;5.85;3.78;;;23.10;73.30;;;;;;5181856;28;20378;-72
2021/09/12 10:28:35;;;;;;;7.63;4.65;;;23.20;73.40;;;;;;5164545;28;20060;-71
2021/09/12 10:31:26;;;;;;;11.73;5.00;;;23.20;73.50;;;;;;5161892;28;20393;-73
2021/09/12 10:34:13;;;;;;;6.68;3.97;;;23.20;73.40;;;;;;5147211;28;20046;-73
2021/09/12 10:36:45;;;;;;;9.15;3.95;;;23.20;73.40;;;;;;5184799;28;20050;-72
2021/09/12 10:39:23;;;;;;;8.27;3.90;;;23.20;73.30;;;;;;5184710;28;20381;-71
2021/09/12 10:42:16;;;;;;;5.53;3.67;;;23.30;73.30;;;;;;5150086;28;20056;-70
2021/09/12 10:45:39;;;;;;;5.88;3.53;;;23.30;73.10;;;;;;5183831;28;20053;-71
2021/09/12 10:48:21;;;;;;;8.40;4.15;;;23.30;72.90;;;;;;5132342;28;20065;-73
2021/09/12 10:50:53;;;;;;;5.15;4.00;;;23.40;73.00;;;;;;5163597;28;20054;-73
2021/09/12 10:53:45;;;;;;;8.20;4.30;;;23.40;73.20;;;;;;5174895;28;20065;-72
2021/09/12 10:56:18;;;;;;;6.88;4.05;;;23.50;73.30;;;;;;5184038;28;20050;-72
2021/09/12 10:58:57;;;;;;;10.25;4.82;;;23.50;73.40;;;;;;5182705;28;20050;-72
2021/09/12 11:01:42;;;;;;;5.40;3.65;;;23.50;73.40;;;;;;5176418;28;20042;-70
2021/09/12 11:04:18;;;;;;;5.60;4.13;;;23.60;73.40;;;;;;5172401;28;20493;-68
2021/09/12 11:07:02;;;;;;;9.25;3.45;;;23.60;73.10;;;;;;5156737;28;20057;-69
2021/09/12 11:09:34;;;;;;;8.40;4.10;;;23.60;73.20;;;;;;5170940;28;20050;-71
2021/09/12 11:12:07;;;;;;;9.38;3.72;;;23.70;73.10;;;;;;5162530;28;20174;-69
2021/09/12 11:14:39;;;;;;;5.88;3.90;;;23.70;73.00;;;;;;5169883;28;20057;-71
2021/09/12 11:17:12;;;;;;;7.03;3.92;;;23.80;72.90;;;;;;5165397;28;20050;-69
2021/09/12 11:19:52;;;;;;;6.68;4.07;;;23.80;72.70;;;;;;5171239;28;20088;-71
2021/09/12 11:22:24;;;;;;;7.03;3.35;;;23.80;72.70;;;;;;5163113;28;20057;-69
2021/09/12 11:25:01;;;;;;;6.63;3.50;;;23.90;72.80;;;;;;5135831;28;20064;-69
2021/09/12 11:27:34;;;;;;;12.32;3.95;;;23.90;72.90;;;;;;5150658;28;20058;-69
2021/09/12 11:30:09;;;;;;;7.25;3.40;;;24.00;72.90;;;;;;5150400;28;20050;-72
2021/09/12 11:32:50;;;;;;;13.20;4.53;;;24.00;72.80;;;;;;5154381;28;20054;-71
2021/09/12 11:35:24;;;;;;;23.65;8.95;;;24.00;72.70;;;;;;5132532;28;20046;-71
2021/09/12 11:38:09;;;;;;;21.90;10.50;;;24.10;72.80;;;;;;5143051;28;20041;-68
2021/09/12 11:40:41;;;;;;;22.67;10.90;;;24.10;72.70;;;;;;5167099;28;20285;-71
2021/09/12 11:43:19;;;;;;;22.40;10.00;;;24.10;72.80;;;;;;5160472;28;20058;-72
2021/09/12 11:46:05;;;;;;;22.92;10.43;;;24.10;72.60;;;;;;5165440;28;20058;-70
2021/09/12 11:48:37;;;;;;;13.30;8.80;;;24.10;72.70;;;;;;5163010;28;20317;-71
2021/09/12 11:51:10;;;;;;;19.77;9.07;;;24.20;72.80;;;;;;5172788;28;20049;-71
2021/09/12 11:53:42;;;;;;;18.13;8.75;;;24.20;72.70;;;;;;5152605;28;20446;-71
2021/09/12 11:56:14;;;;;;;17.02;8.15;;;24.20;72.60;;;;;;5169842;28;20050;-72
2021/09/12 11:58:47;;;;;;;11.65;7.32;;;24.30;72.60;;;;;;5169318;28;20091;-72
2021/09/12 12:01:20;;;;;;;12.73;7.38;;;24.30;72.40;;;;;;5165560;28;20038;-72
2021/09/12 12:03:54;;;;;;;14.32;7.45;;;24.40;72.50;;;;;;5167371;28;20039;-71
2021/09/12 12:06:27;;;;;;;17.17;7.10;;;24.30;72.40;;;;;;5171107;28;20499;-73
2021/09/12 12:09:15;;;;;;;12.60;6.50;;;24.40;72.40;;;;;;5169073;28;20049;-70
2021/09/12 12:11:48;;;;;;;10.30;6.25;;;24.40;72.40;;;;;;5167690;28;20424;-71
2021/09/12 12:14:25;;;;;;;15.73;6.07;;;24.50;72.50;;;;;;5166729;28;20499;-72
2021/09/12 12:17:03;;;;;;;9.63;5.30;;;24.50;72.60;;;;;;5167993;28;20522;-72
2021/09/12 12:19:35;;;;;;;8.65;5.18;;;24.60;72.20;;;;;;5169867;28;20052;-72
2021/09/12 12:22:08;;;;;;;9.05;5.10;;;24.60;72.10;;;;;;5165511;28;20057;-71
2021/09/12 12:24:51;;;;;;;10.60;5.50;;;24.60;72.10;;;;;;5168503;28;20053;-72
2021/09/12 12:27:25;;;;;;;11.43;5.50;;;24.60;72.00;;;;;;5163009;28;20057;-71
2021/09/12 12:29:59;;;;;;;11.20;5.20;;;24.70;72.00;;;;;;5168770;28;20304;-71
2021/09/12 12:32:32;;;;;;;7.32;4.60;;;24.70;72.00;;;;;;5169719;28;20046;-70
2021/09/12 12:35:16;;;;;;;18.48;5.50;;;24.70;71.80;;;;;;5170860;28;20065;-70
2021/09/12 12:37:49;;;;;;;7.75;4.05;;;24.70;71.80;;;;;;5162278;28;20495;-68
2021/09/12 12:40:23;;;;;;;7.28;4.60;;;24.70;72.40;;;;;;5159396;28;20049;-68
2021/09/12 12:43:04;;;;;;;9.00;4.28;;;24.70;71.80;;;;;;5170105;28;20506;-70
2021/09/12 12:45:37;;;;;;;7.07;3.72;;;24.70;71.80;;;;;;5170212;28;20378;-73
2021/09/12 12:48:09;;;;;;;8.32;4.35;;;24.70;71.90;;;;;;5169432;28;20041;-68
2021/09/12 12:50:45;;;;;;;5.90;3.83;;;24.70;71.90;;;;;;5152418;28;20057;-71
2021/09/12 12:53:35;;;;;;;7.50;4.28;;;24.80;72.00;;;;;;5163938;28;20053;-71
2021/09/12 12:56:10;;;;;;;8.52;3.65;;;24.80;72.00;;;;;;5148280;28;20673;-71
2021/09/12 12:58:44;;;;;;;12.70;4.63;;;24.80;71.90;;;;;;5169231;28;20073;-72
2021/09/12 13:01:17;;;;;;;6.82;3.67;;;24.90;71.90;;;;;;5152948;28;20041;-72
2021/09/12 13:03:50;;;;;;;11.05;3.95;;;24.90;71.90;;;;;;5168198;28;20045;-68
2021/09/12 13:06:23;;;;;;;6.45;3.78;;;24.90;71.80;;;;;;5171548;28;20045;-72
2021/09/12 13:08:55;;;;;;;10.27;3.25;;;25.00;71.80;;;;;;5172253;28;20057;-71
2021/09/12 13:11:28;;;;;;;6.00;3.50;;;25.00;71.80;;;;;;5172365;28;20046;-70
2021/09/12 13:14:01;;;;;;;8.27;3.20;;;25.00;71.60;;;;;;5167364;28;20065;-71
2021/09/12 13:16:33;;;;;;;7.20;3.15;;;25.10;71.70;;;;;;5169466;28;20063;-72
2021/09/12 13:19:06;;;;;;;6.97;3.20;;;25.10;71.60;;;;;;5173470;28;20514;-70
2021/09/12 13:21:38;;;;;;;6.22;3.58;;;25.10;71.60;;;;;;5162280;28;20403;-71